createdAt,value
2022-08-26T00:04:05.631Z,78.83
2022-08-26T00:06:58.504Z,78.86
2022-08-26T00:09:38.934Z,79.25
2022-08-26T00:15:43.204Z,79.35
2022-08-26T00:31:56.457Z,80.05
2022-08-26T00:35:20.510Z,80.03
2022-08-26T00:38:15.316Z,80.21
2022-08-26T00:41:08.332Z,80.44
2022-08-26T00:44:06.698Z,80.48
2022-08-26T00:51:43.274Z,80.71
2022-08-26T00:55:37.748Z,81.08
2022-08-26T01:05:38.100Z,81.34
2022-08-26T01:14:51.396Z,81.38
2022-08-26T01:21:22.538Z,81.66
2022-08-26T01:24:53.907Z,81.75
2022-08-26T01:27:56.800Z,81.52
2022-08-26T01:31:05.908Z,81.90
2022-08-26T01:34:51.412Z,81.73
2022-08-26T01:44:58.446Z,82.30
2022-08-26T01:52:39.975Z,82.29
2022-08-26T01:56:22.958Z,82.17
2022-08-26T02:03:21.487Z,82.09
2022-08-26T02:15:48.575Z,82.49
2022-08-26T02:18:30.089Z,82.76
2022-08-26T02:21:10.877Z,82.62
2022-08-26T02:24:03.051Z,82.44
2022-08-26T02:26:58.438Z,82.79
2022-08-26T02:30:17.458Z,82.78
2022-08-26T02:33:04.815Z,83.10
2022-08-26T02:36:40.183Z,83.30
2022-08-26T02:39:47.043Z,83.36
2022-08-26T02:42:31.756Z,83.10
2022-08-26T02:45:07.897Z,83.23
2022-08-26T02:48:12.397Z,83.42
2022-08-26T02:54:28.743Z,82.89
2022-08-26T03:07:27.698Z,83.25
2022-08-26T03:10:08.277Z,83.68
2022-08-26T03:13:15.979Z,83.46
2022-08-26T03:19:21.748Z,83.55
2022-08-26T03:23:30.509Z,83.22
2022-08-26T03:36:33.470Z,83.48
2022-08-26T03:40:29.972Z,83.44
2022-08-26T03:43:41.478Z,83.63
2022-08-26T03:55:09.856Z,83.60
2022-08-26T04:05:25.464Z,83.96
2022-08-26T04:25:41.614Z,84.01
2022-08-26T04:28:09.223Z,83.83
2022-08-26T04:30:39.911Z,83.92
2022-08-26T04:33:12.778Z,84.15
2022-08-26T04:35:40.078Z,84.07
2022-08-26T04:38:11.166Z,83.70
2022-08-26T04:40:39.697Z,83.95
2022-08-26T04:43:20.921Z,83.52
2022-08-26T04:45:47.977Z,84.02
2022-08-26T04:48:16.883Z,84.22
2022-08-26T04:50:43.659Z,83.69
2022-08-26T04:53:10.347Z,84.13
2022-08-26T04:55:38.471Z,83.74
2022-08-26T04:58:10.383Z,83.82
2022-08-26T05:00:40.144Z,83.75
2022-08-26T05:03:07.670Z,83.74
2022-08-26T05:05:39.848Z,83.58
2022-08-26T05:08:06.773Z,83.18
2022-08-26T05:10:36.357Z,83.18
2022-08-26T05:13:05.029Z,82.73
2022-08-26T05:15:38.086Z,82.99
2022-08-26T05:18:06.347Z,82.67
2022-08-26T05:20:39.469Z,82.48
2022-08-26T05:23:07.700Z,82.22
2022-08-26T05:25:43.099Z,82.46
2022-08-26T05:28:11.344Z,82.09
2022-08-26T05:30:40.217Z,82.13
2022-08-26T05:33:08.942Z,82.25
2022-08-26T05:35:38.318Z,82.13
2022-08-26T05:38:12.863Z,81.87
2022-08-26T05:40:43.164Z,81.80
2022-08-26T05:43:10.600Z,81.96
2022-08-26T05:45:48.987Z,81.51
2022-08-26T05:48:18.356Z,81.32
2022-08-26T05:50:50.689Z,81.25
2022-08-26T05:53:20.766Z,81.64
2022-08-26T05:55:52.017Z,81.55
2022-08-26T05:58:21.405Z,81.59
2022-08-26T06:01:05.172Z,81.33
2022-08-26T06:03:34.241Z,80.95
2022-08-26T06:06:11.706Z,81.01
2022-08-26T06:08:38.858Z,80.87
2022-08-26T06:11:08.241Z,80.75
2022-08-26T06:13:47.587Z,80.52
2022-08-26T06:16:17.404Z,80.66
2022-08-26T06:18:45.829Z,80.65
2022-08-26T06:21:12.802Z,80.48
2022-08-26T06:23:59.100Z,80.15
2022-08-26T06:26:26.056Z,80.18
2022-08-26T06:28:52.986Z,80.37
2022-08-26T06:31:19.763Z,80.02
2022-08-26T06:33:46.843Z,80.13
2022-08-26T06:36:19.486Z,79.68
2022-08-26T06:38:49.869Z,79.95
2022-08-26T06:41:18.186Z,80.02
2022-08-26T06:43:44.960Z,79.33
2022-08-26T06:46:14.058Z,79.41
2022-08-26T06:48:41.051Z,79.47
2022-08-26T06:51:18.022Z,79.01
2022-08-26T06:53:50.613Z,78.62
2022-08-26T06:56:23.044Z,78.91
2022-08-26T06:58:51.831Z,78.35
2022-08-26T07:01:24.718Z,78.38
2022-08-26T07:03:54.234Z,77.98
2022-08-26T07:06:24.073Z,78.36
2022-08-26T07:08:52.934Z,77.93
2022-08-26T07:11:20.317Z,77.54
2022-08-26T07:13:47.815Z,77.63
2022-08-26T07:16:17.597Z,77.27
2022-08-26T07:18:45.761Z,77.29
2022-08-26T07:21:14.936Z,77.23
2022-08-26T07:23:41.699Z,76.92
2022-08-26T07:26:16.441Z,76.87
2022-08-26T07:28:48.725Z,76.48
2022-08-26T07:31:16.499Z,76.31
2022-08-26T07:33:43.863Z,76.38
2022-08-26T07:36:12.197Z,76.15
2022-08-26T07:38:39.923Z,76.07
2022-08-26T07:41:08.685Z,76.13
2022-08-26T07:43:36.978Z,75.84
2022-08-26T07:46:06.501Z,75.82
2022-08-26T07:48:34.346Z,75.41
2022-08-26T07:51:02.612Z,75.50
2022-08-26T07:53:29.532Z,75.51
2022-08-26T07:55:56.355Z,75.25
2022-08-26T07:58:23.171Z,74.95
2022-08-26T08:00:49.982Z,74.52
2022-08-26T08:03:16.751Z,74.35
2022-08-26T08:05:43.558Z,74.65
2022-08-26T08:08:19.735Z,74.32
2022-08-26T08:10:55.937Z,73.84
2022-08-26T08:13:23.611Z,73.70
2022-08-26T08:15:50.954Z,73.39
2022-08-26T08:18:20.497Z,73.03
2022-08-26T08:20:54.521Z,72.42
2022-08-26T08:23:32.960Z,72.14
2022-08-26T08:26:04.775Z,71.91
2022-08-26T08:28:31.566Z,71.62
2022-08-26T08:30:59.166Z,71.71
2022-08-26T08:33:26.619Z,71.14
2022-08-26T08:35:53.488Z,71.19
2022-08-26T08:38:22.724Z,70.85
2022-08-26T08:40:51.222Z,71.19
2022-08-26T08:43:41.004Z,70.64
2022-08-26T08:46:13.091Z,70.25
2022-08-26T08:48:44.256Z,69.81
2022-08-26T08:51:20.928Z,69.18
2022-08-26T08:53:49.672Z,68.92
2022-08-26T08:56:31.476Z,68.97
2022-08-26T08:59:01.264Z,69.10
2022-08-26T09:01:54.005Z,68.44
2022-08-26T09:04:57.494Z,67.95
2022-08-26T09:07:38.207Z,67.07
2022-08-26T09:10:18.190Z,66.21
2022-08-26T09:12:47.716Z,65.91
2022-08-26T09:15:19.416Z,65.39
2022-08-26T09:18:05.870Z,64.82
2022-08-26T09:20:54.374Z,64.90
2022-08-26T09:23:21.217Z,65.02
2022-08-26T09:28:45.203Z,64.28
2022-08-26T09:31:32.848Z,64.16
2022-08-26T09:34:32.115Z,63.37
2022-08-26T09:37:00.030Z,62.98
2022-08-26T09:39:34.739Z,63.26
2022-08-26T09:42:09.485Z,62.81
2022-08-26T09:44:56.877Z,62.54
2022-08-26T09:47:38.387Z,62.04
2022-08-26T09:50:29.628Z,62.01
2022-08-26T09:53:12.866Z,62.00
2022-08-26T09:55:48.212Z,61.57
2022-08-26T09:58:33.705Z,61.99
2022-08-26T10:01:02.387Z,61.61
2022-08-26T10:03:35.741Z,61.76
2022-08-26T10:06:05.268Z,61.36
2022-08-26T10:08:36.719Z,60.84
2022-08-26T10:11:07.335Z,61.17
2022-08-26T10:13:38.059Z,60.78
2022-08-26T10:16:14.595Z,60.81
2022-08-26T10:19:15.908Z,60.73
2022-08-26T10:22:00.459Z,60.83
2022-08-26T10:24:43.272Z,61.01
2022-08-26T10:27:38.278Z,61.11
2022-08-26T10:30:18.986Z,60.84
2022-08-26T10:32:49.583Z,61.00
2022-08-26T10:35:19.313Z,60.92
2022-08-26T10:37:50.102Z,60.85
2022-08-26T10:40:29.801Z,60.73
2022-08-26T10:43:11.026Z,61.05
2022-08-26T10:45:50.474Z,60.88
2022-08-26T10:48:35.402Z,60.95
2022-08-26T10:51:04.289Z,61.37
2022-08-26T11:22:19.194Z,63.13
2022-08-26T11:28:49.985Z,63.66
2022-08-26T11:31:26.099Z,63.66
2022-08-26T11:34:03.349Z,63.67
2022-08-26T11:36:47.946Z,64.29
2022-08-26T11:39:20.912Z,64.55
2022-08-26T11:41:52.612Z,64.57
2022-08-26T11:44:26.044Z,65.18
2022-08-26T11:46:55.753Z,65.20
2022-08-26T11:49:22.760Z,65.50
2022-08-26T11:51:49.655Z,65.53
2022-08-26T11:54:30.540Z,65.95
2022-08-26T11:57:07.808Z,66.18
2022-08-26T11:59:39.520Z,67.49
2022-08-26T12:02:14.538Z,67.05
2022-08-26T12:04:42.574Z,66.29
2022-08-26T12:07:10.056Z,66.71
2022-08-26T12:09:38.497Z,67.21
2022-08-26T12:12:17.336Z,68.58
2022-08-26T12:14:44.388Z,69.56
2022-08-26T12:17:32.503Z,69.84
2022-08-26T12:20:00.656Z,69.99
2022-08-26T12:22:36.063Z,69.91
2022-08-26T12:25:06.648Z,69.95
2022-08-26T12:27:37.351Z,71.87
2022-08-26T12:30:08.558Z,75.06
2022-08-26T12:32:37.433Z,75.88
2022-08-26T12:35:24.096Z,76.88
2022-08-26T12:37:53.103Z,76.96
2022-08-26T12:40:36.100Z,77.12
2022-08-26T12:43:05.232Z,77.53
2022-08-26T12:45:56.203Z,78.13
2022-08-26T12:48:30.084Z,78.33
2022-08-26T12:50:57.481Z,79.10
2022-08-26T12:53:26.566Z,79.24
2022-08-26T12:55:56.624Z,79.61
2022-08-26T12:58:38.208Z,79.98
2022-08-26T13:01:05.120Z,79.73
2022-08-26T13:03:35.058Z,79.69
2022-08-26T13:06:20.594Z,80.09
2022-08-26T13:08:52.751Z,79.75
2022-08-26T13:11:26.124Z,79.51
2022-08-26T13:13:57.135Z,79.29
2022-08-26T13:16:25.135Z,78.87
2022-08-26T13:18:58.058Z,78.31
2022-08-26T13:21:28.604Z,77.66
2022-08-26T13:24:06.281Z,77.68
2022-08-26T13:26:33.163Z,76.56
2022-08-26T13:29:02.017Z,76.22
2022-08-26T13:31:34.659Z,75.87
2022-08-26T13:34:02.387Z,76.12
2022-08-26T13:36:29.259Z,76.79
2022-08-26T13:39:02.339Z,78.13
2022-08-26T13:41:34.915Z,79.57
2022-08-26T13:44:01.616Z,80.58
2022-08-26T13:46:28.922Z,82.05
2022-08-26T13:48:57.007Z,82.45
2022-08-26T13:51:24.860Z,82.53
2022-08-26T13:53:52.224Z,82.87
2022-08-26T13:56:19.847Z,83.23
2022-08-26T13:58:46.908Z,82.80
2022-08-26T14:01:15.901Z,82.96
2022-08-26T14:03:43.120Z,82.94
2022-08-26T14:06:10.435Z,82.71
2022-08-26T14:08:56.920Z,82.95
2022-08-26T14:11:26.413Z,82.71
2022-08-26T14:13:59.128Z,82.97
2022-08-26T14:16:28.191Z,82.89
2022-08-26T14:18:55.071Z,83.40
2022-08-26T14:21:22.257Z,83.61
2022-08-26T14:23:49.061Z,83.88
2022-08-26T14:26:27.764Z,84.15
2022-08-26T14:29:01.811Z,83.97
2022-08-26T14:31:30.182Z,83.93
2022-08-26T14:33:58.555Z,83.93
2022-08-26T14:36:28.145Z,84.33
2022-08-26T14:38:57.027Z,84.24
2022-08-26T14:41:25.453Z,84.24
2022-08-26T14:43:57.964Z,84.18
2022-08-26T14:46:29.085Z,83.83
2022-08-26T14:49:01.032Z,84.12
2022-08-26T14:51:29.008Z,84.25
2022-08-26T14:54:14.110Z,83.66
2022-08-26T14:56:45.132Z,83.86
2022-08-26T14:59:13.943Z,84.12
2022-08-26T15:01:40.872Z,84.71
2022-08-26T15:04:07.721Z,85.19
2022-08-26T15:06:35.740Z,85.11
2022-08-26T15:09:02.835Z,85.38
2022-08-26T15:11:29.685Z,85.00
2022-08-26T15:14:02.977Z,84.78
2022-08-26T15:16:30.131Z,84.49
2022-08-26T15:18:57.047Z,84.09
2022-08-26T15:21:24.481Z,83.58
2022-08-26T15:23:52.003Z,83.24
2022-08-26T15:26:23.656Z,83.07
2022-08-26T15:28:51.066Z,83.35
2022-08-26T15:31:17.917Z,82.93
2022-08-26T15:33:47.271Z,82.88
2022-08-26T15:36:14.520Z,82.74
2022-08-26T15:38:42.741Z,82.64
2022-08-26T15:41:10.309Z,82.17
2022-08-26T15:43:38.007Z,81.82
2022-08-26T15:46:04.890Z,80.88
2022-08-26T15:48:32.230Z,81.02
2022-08-26T15:51:01.000Z,80.63
2022-08-26T15:53:31.384Z,80.41
2022-08-26T15:55:59.068Z,80.47
2022-08-26T15:58:27.700Z,80.39
2022-08-26T16:00:57.739Z,80.12
2022-08-26T16:03:45.496Z,80.46
2022-08-26T16:06:22.968Z,80.20
2022-08-26T16:08:50.223Z,80.01
2022-08-26T16:11:19.962Z,79.96
2022-08-26T16:13:47.602Z,80.09
2022-08-26T16:16:15.187Z,80.08
2022-08-26T16:18:42.550Z,80.24
2022-08-26T16:21:36.315Z,80.58
2022-08-26T16:24:05.331Z,80.92
2022-08-26T16:26:34.693Z,81.26
2022-08-26T16:29:03.428Z,81.22
2022-08-26T16:31:30.198Z,81.25
2022-08-26T16:33:56.978Z,81.21
2022-08-26T16:36:23.857Z,81.49
2022-08-26T16:38:56.565Z,81.42
2022-08-26T16:41:25.049Z,81.54
2022-08-26T16:43:52.095Z,81.78
2022-08-26T16:46:19.147Z,82.14
2022-08-26T16:48:46.045Z,82.08
2022-08-26T16:51:16.156Z,82.52
2022-08-26T16:53:44.047Z,82.30
2022-08-26T16:56:17.067Z,82.49
2022-08-26T16:58:44.153Z,82.40
2022-08-26T17:01:11.181Z,82.01
2022-08-26T17:03:38.005Z,82.05
2022-08-26T17:06:05.050Z,82.42
2022-08-26T17:08:31.775Z,82.22
2022-08-26T17:11:01.748Z,82.20
2022-08-26T17:13:34.758Z,82.43
2022-08-26T17:16:01.979Z,82.62
2022-08-26T17:18:31.133Z,82.86
2022-08-26T17:21:02.094Z,82.67
2022-08-26T17:23:29.223Z,82.86
2022-08-26T17:25:55.949Z,82.98
2022-08-26T17:29:12.261Z,83.10
2022-08-26T17:31:37.783Z,83.69
2022-08-26T17:34:04.710Z,83.59
2022-08-26T17:36:31.425Z,83.83
2022-08-26T17:38:58.694Z,83.41
2022-08-26T17:41:26.372Z,83.83
2022-08-26T17:44:33.669Z,83.86
2022-08-26T17:47:00.944Z,84.00
2022-08-26T17:49:28.132Z,83.86
2022-08-26T17:54:45.484Z,84.09
2022-08-26T17:57:12.168Z,84.21
2022-08-26T17:59:41.727Z,84.26
2022-08-26T18:02:08.794Z,83.90
2022-08-26T18:04:35.664Z,83.57
2022-08-26T18:07:02.439Z,84.12
2022-08-26T18:09:31.307Z,84.02
2022-08-26T18:11:58.843Z,83.72
2022-08-26T18:14:26.240Z,83.77
2022-08-26T18:16:53.660Z,83.74
2022-08-26T18:19:20.368Z,83.73
2022-08-26T18:21:47.084Z,83.55
2022-08-26T18:24:14.310Z,83.52
2022-08-26T18:26:48.074Z,83.92
2022-08-26T18:29:15.585Z,83.66
2022-08-26T18:31:42.532Z,83.40
2022-08-26T18:34:12.952Z,83.39
2022-08-26T18:36:42.577Z,83.72
2022-08-26T18:39:10.738Z,83.77
2022-08-26T18:41:48.594Z,83.52
2022-08-26T18:44:18.453Z,83.34
2022-08-26T18:46:45.966Z,83.83
2022-08-26T18:49:15.219Z,83.36
2022-08-26T18:51:42.621Z,83.50
2022-08-26T18:54:09.754Z,83.77
2022-08-26T18:56:38.998Z,83.99
2022-08-26T18:59:07.366Z,84.13
2022-08-26T19:01:35.321Z,84.34
2022-08-26T19:04:04.243Z,84.15
2022-08-26T19:06:33.043Z,84.44
2022-08-26T19:09:00.338Z,84.20
2022-08-26T19:11:31.394Z,84.15
2022-08-26T19:14:00.876Z,84.35
2022-08-26T19:16:28.176Z,84.37
2022-08-26T19:18:55.885Z,84.04
2022-08-26T19:21:23.217Z,84.20
2022-08-26T19:23:50.744Z,84.45
2022-08-26T19:26:18.734Z,84.58
2022-08-26T19:28:45.530Z,84.64
2022-08-26T19:31:12.435Z,84.18
2022-08-26T19:33:41.803Z,84.09
2022-08-26T19:36:14.916Z,84.09
2022-08-26T19:38:42.936Z,84.48
2022-08-26T19:41:15.210Z,84.29
2022-08-26T19:43:42.596Z,84.52
2022-08-26T19:46:17.399Z,84.25
2022-08-26T19:48:45.075Z,84.87
2022-08-26T19:51:13.678Z,84.38
2022-08-26T19:53:40.843Z,84.74
2022-08-26T19:56:08.202Z,84.38
2022-08-26T19:58:35.786Z,84.44
2022-08-26T20:33:08.587Z,85.01
2022-08-26T20:46:18.035Z,84.62
2022-08-26T20:50:45.931Z,84.86
2022-08-26T21:06:15.426Z,84.84
2022-08-26T21:08:44.964Z,84.55
2022-08-26T21:11:23.872Z,84.47
2022-08-26T21:14:16.094Z,84.67
2022-08-26T21:16:43.513Z,84.00
2022-08-26T21:19:13.773Z,84.55
2022-08-26T21:21:41.975Z,84.69
2022-08-26T21:24:09.495Z,84.35
2022-08-26T21:26:45.268Z,84.68
2022-08-26T21:29:13.672Z,84.67
2022-08-26T21:31:49.772Z,85.12
2022-08-26T21:34:47.291Z,85.37
2022-08-26T21:37:31.062Z,85.09
2022-08-26T21:39:59.325Z,85.07
2022-08-26T21:42:40.094Z,85.05
2022-08-26T21:45:10.216Z,85.25
2022-08-26T21:47:37.271Z,84.86
2022-08-26T21:50:26.660Z,84.68
2022-08-26T21:52:59.155Z,85.16
2022-08-26T21:55:36.852Z,85.35
2022-08-26T21:58:18.357Z,85.12
2022-08-26T22:00:54.254Z,84.99
2022-08-26T22:03:30.329Z,85.00
2022-08-26T22:06:23.165Z,84.86
2022-08-26T22:08:56.190Z,85.29
2022-08-26T22:11:58.501Z,85.20
2022-08-26T22:14:30.943Z,85.08
2022-08-26T22:17:16.855Z,85.37
2022-08-26T22:20:24.606Z,85.32
2022-08-26T22:23:10.628Z,85.32
2022-08-26T22:25:56.136Z,85.23
2022-08-26T22:29:00.000Z,85.60
2022-08-26T22:31:37.875Z,85.92
2022-08-26T22:37:38.482Z,86.07
2022-08-26T22:46:44.019Z,85.61
2022-08-26T22:49:54.820Z,85.42
2022-08-26T22:52:39.382Z,85.43
2022-08-26T22:55:36.914Z,85.38
2022-08-26T22:58:08.674Z,85.63
2022-08-26T23:00:47.096Z,85.57
2022-08-26T23:03:24.611Z,85.85
2022-08-26T23:06:33.282Z,85.60
2022-08-26T23:09:36.638Z,85.94
2022-08-26T23:12:57.088Z,85.95
2022-08-26T23:19:10.072Z,86.42
2022-08-26T23:22:00.746Z,86.43
2022-08-26T23:24:47.026Z,86.85
2022-08-26T23:27:14.000Z,86.57
2022-08-26T23:29:40.918Z,86.50
2022-08-26T23:32:16.323Z,86.64
2022-08-26T23:34:56.749Z,86.25
2022-08-26T23:37:24.119Z,86.54
2022-08-26T23:40:33.685Z,86.50
2022-08-26T23:43:07.876Z,86.32
2022-08-26T23:45:40.844Z,86.36
2022-08-26T23:48:24.823Z,86.27
2022-08-26T23:51:29.330Z,86.31
2022-08-26T23:54:26.552Z,85.97
2022-08-26T23:56:53.527Z,86.25
2022-08-26T23:59:30.238Z,86.45
